createdAt,value
2023-06-02T00:01:34.308Z,11.33
2023-06-02T00:04:04.800Z,11.14
2023-06-02T00:06:35.433Z,11.40
2023-06-02T00:09:06.132Z,11.36
2023-06-02T00:11:36.449Z,11.39
2023-06-02T00:14:05.168Z,11.37
2023-06-02T00:16:35.213Z,11.31
2023-06-02T00:19:01.840Z,11.29
2023-06-02T00:21:29.022Z,11.23
2023-06-02T00:23:55.827Z,11.20
2023-06-02T00:26:26.482Z,11.20
2023-06-02T00:28:56.919Z,11.23
2023-06-02T00:31:24.076Z,11.26
2023-06-02T00:33:50.879Z,11.31
2023-06-02T00:36:17.607Z,11.29
2023-06-02T00:38:44.331Z,11.21
2023-06-02T00:41:11.340Z,11.37
2023-06-02T00:43:38.096Z,11.40
2023-06-02T00:46:04.883Z,11.43
2023-06-02T00:48:31.740Z,11.46
2023-06-02T00:50:58.492Z,11.44
2023-06-02T00:53:25.427Z,11.42
2023-06-02T00:55:54.204Z,11.44
2023-06-02T00:58:21.189Z,11.36
2023-06-02T01:00:48.366Z,11.37
2023-06-02T01:03:16.017Z,11.30
2023-06-02T01:05:48.150Z,11.12
2023-06-02T01:08:17.337Z,11.14
2023-06-02T01:10:44.775Z,10.94
2023-06-02T01:13:12.341Z,10.95
2023-06-02T01:15:39.092Z,10.94
2023-06-02T01:18:10.872Z,10.91
2023-06-02T01:20:45.541Z,10.85
2023-06-02T01:23:17.955Z,10.77
2023-06-02T01:25:45.550Z,10.73
2023-06-02T01:28:13.578Z,10.69
2023-06-02T01:30:40.680Z,10.68
2023-06-02T01:33:25.789Z,10.60
2023-06-02T01:36:00.226Z,10.38
2023-06-02T01:38:29.837Z,10.53
2023-06-02T01:41:04.430Z,10.47
2023-06-02T01:43:33.772Z,10.42
2023-06-02T01:46:02.851Z,10.41
2023-06-02T01:48:30.410Z,10.29
2023-06-02T01:50:57.213Z,10.39
2023-06-02T01:53:27.984Z,10.34
2023-06-02T01:55:55.804Z,10.39
2023-06-02T01:58:22.933Z,10.40
2023-06-02T02:00:49.653Z,10.43
2023-06-02T02:03:16.520Z,10.49
2023-06-02T02:05:44.571Z,10.46
2023-06-02T02:08:13.402Z,10.50
2023-06-02T02:10:40.481Z,10.49
2023-06-02T02:13:07.218Z,10.50
2023-06-02T02:15:34.262Z,10.53
2023-06-02T02:18:01.056Z,10.50
2023-06-02T02:20:28.211Z,10.46
2023-06-02T02:22:55.400Z,10.41
2023-06-02T02:25:22.336Z,10.41
2023-06-02T02:28:04.752Z,10.45
2023-06-02T02:30:31.733Z,10.44
2023-06-02T02:32:58.440Z,10.35
2023-06-02T02:35:25.205Z,10.24
2023-06-02T02:37:51.904Z,10.13
2023-06-02T02:40:18.724Z,10.21
2023-06-02T02:42:45.667Z,10.15
2023-06-02T02:45:12.562Z,10.08
2023-06-02T02:47:39.401Z,9.81
2023-06-02T02:50:06.600Z,9.72
2023-06-02T02:52:33.586Z,9.71
2023-06-02T02:55:00.922Z,9.70
2023-06-02T02:57:27.674Z,9.58
2023-06-02T02:59:54.439Z,9.72
2023-06-02T03:02:21.131Z,9.82
2023-06-02T03:04:48.074Z,9.92
2023-06-02T03:07:15.152Z,9.94
2023-06-02T03:09:42.338Z,10.03
2023-06-02T03:12:09.433Z,10.10
2023-06-02T03:14:36.714Z,10.17
2023-06-02T03:17:03.997Z,10.23
2023-06-02T03:19:31.012Z,10.25
2023-06-02T03:21:58.128Z,10.28
2023-06-02T03:24:25.530Z,10.25
2023-06-02T03:26:53.792Z,10.38
2023-06-02T03:29:21.241Z,10.44
2023-06-02T03:31:48.800Z,10.79
2023-06-02T03:34:15.689Z,11.21
2023-06-02T03:36:42.489Z,11.66
2023-06-02T03:39:09.421Z,12.14
2023-06-02T03:41:37.632Z,12.55
2023-06-02T03:44:05.026Z,13.12
2023-06-02T03:46:32.158Z,13.41
2023-06-02T03:48:59.178Z,13.76
2023-06-02T03:51:26.073Z,14.17
2023-06-02T03:53:52.824Z,14.43
2023-06-02T03:56:21.354Z,14.78
2023-06-02T03:58:49.245Z,15.16
2023-06-02T04:01:19.505Z,15.48
2023-06-02T04:03:46.596Z,15.85
2023-06-02T04:06:13.946Z,16.10
2023-06-02T04:08:40.977Z,16.25
2023-06-02T04:11:08.260Z,16.44
2023-06-02T04:13:35.282Z,16.76
2023-06-02T04:16:02.531Z,17.00
2023-06-02T04:18:31.550Z,17.29
2023-06-02T04:21:05.040Z,17.46
2023-06-02T04:23:31.768Z,17.68
2023-06-02T04:25:58.584Z,18.08
2023-06-02T04:28:25.489Z,18.47
2023-06-02T04:30:56.762Z,18.79
2023-06-02T04:33:24.739Z,18.88
2023-06-02T04:35:52.000Z,19.03
2023-06-02T04:38:19.431Z,19.12
2023-06-02T04:40:47.051Z,19.18
2023-06-02T04:43:13.827Z,19.47
2023-06-02T04:45:44.854Z,19.57
2023-06-02T04:48:12.654Z,19.66
2023-06-02T04:50:39.862Z,20.06
2023-06-02T04:53:07.161Z,20.53
2023-06-02T04:55:34.051Z,20.55
2023-06-02T04:58:00.871Z,20.55
2023-06-02T05:00:28.868Z,20.29
2023-06-02T05:02:56.676Z,20.47
2023-06-02T05:05:23.707Z,20.74
2023-06-02T05:07:50.494Z,20.90
2023-06-02T05:10:17.164Z,20.89
2023-06-02T05:12:44.833Z,20.95
2023-06-02T05:15:11.756Z,21.05
2023-06-02T05:17:38.657Z,21.11
2023-06-02T05:20:06.160Z,21.27
2023-06-02T05:22:32.932Z,21.35
2023-06-02T05:25:00.256Z,21.39
2023-06-02T05:27:27.045Z,21.49
2023-06-02T05:29:53.752Z,21.55
2023-06-02T05:32:23.955Z,21.39
2023-06-02T05:34:50.923Z,21.43
2023-06-02T05:37:17.663Z,21.65
2023-06-02T05:39:44.671Z,22.06
2023-06-02T05:42:11.507Z,22.12
2023-06-02T05:44:38.225Z,22.05
2023-06-02T05:47:06.368Z,22.25
2023-06-02T05:49:33.158Z,22.15
2023-06-02T05:52:00.829Z,22.17
2023-06-02T05:54:27.698Z,22.64
2023-06-02T05:56:55.682Z,22.84
2023-06-02T05:59:22.427Z,22.92
2023-06-02T06:01:49.153Z,22.82
2023-06-02T06:04:16.110Z,22.40
2023-06-02T06:06:42.781Z,22.59
2023-06-02T06:09:09.921Z,22.79
2023-06-02T06:11:37.521Z,22.79
2023-06-02T06:14:08.956Z,22.88
2023-06-02T06:16:35.900Z,22.72
2023-06-02T06:19:04.296Z,22.77
2023-06-02T06:21:31.083Z,22.33
2023-06-02T06:23:57.876Z,22.12
2023-06-02T06:26:24.675Z,22.14
2023-06-02T06:28:51.314Z,22.68
2023-06-02T06:31:18.211Z,23.08
2023-06-02T06:33:44.888Z,22.92
2023-06-02T06:36:12.395Z,22.70
2023-06-02T06:38:39.509Z,22.70
2023-06-02T06:41:06.356Z,22.46
2023-06-02T06:43:33.066Z,22.30
2023-06-02T06:46:03.191Z,22.61
2023-06-02T06:48:30.404Z,22.63
2023-06-02T06:50:57.297Z,22.55
2023-06-02T06:53:24.010Z,22.76
2023-06-02T06:55:51.124Z,23.04
2023-06-02T06:58:17.801Z,23.08
2023-06-02T07:00:44.660Z,23.02
2023-06-02T07:03:11.445Z,22.94
2023-06-02T07:05:38.260Z,22.94
2023-06-02T07:08:05.036Z,23.01
2023-06-02T07:10:31.726Z,22.63
2023-06-02T07:12:58.534Z,22.41
2023-06-02T07:15:25.369Z,22.27
2023-06-02T07:17:52.328Z,22.16
2023-06-02T07:20:19.092Z,22.40
2023-06-02T07:22:45.954Z,22.20
2023-06-02T07:25:13.028Z,22.20
2023-06-02T07:27:39.987Z,22.21
2023-06-02T07:30:08.740Z,22.01
2023-06-02T07:32:35.521Z,22.02
2023-06-02T07:35:02.263Z,22.27
2023-06-02T07:37:29.959Z,22.32
2023-06-02T07:39:56.640Z,22.45
2023-06-02T07:42:23.736Z,22.71
2023-06-02T07:44:50.671Z,22.62
2023-06-02T07:47:17.425Z,22.35
2023-06-02T07:49:45.007Z,21.85
2023-06-02T07:52:12.136Z,21.72
2023-06-02T07:54:38.886Z,21.54
2023-06-02T07:57:07.079Z,21.68
2023-06-02T07:59:33.723Z,21.62
2023-06-02T08:02:00.564Z,21.98
2023-06-02T08:04:28.702Z,22.31
2023-06-02T08:06:58.965Z,22.63
2023-06-02T08:09:25.751Z,22.61
2023-06-02T08:11:53.154Z,21.75
2023-06-02T08:14:25.791Z,21.64
2023-06-02T08:16:58.662Z,21.79
2023-06-02T08:19:27.369Z,21.96
2023-06-02T08:21:54.363Z,22.00
2023-06-02T08:24:26.587Z,22.02
2023-06-02T08:26:56.021Z,21.94
2023-06-02T08:29:23.471Z,21.63
2023-06-02T08:31:50.562Z,21.67
2023-06-02T08:34:21.815Z,21.71
2023-06-02T08:36:51.518Z,21.87
2023-06-02T08:39:19.049Z,21.90
2023-06-02T08:41:47.538Z,21.70
2023-06-02T08:44:15.163Z,21.85
2023-06-02T08:46:42.932Z,21.79
2023-06-02T08:49:09.992Z,21.78
2023-06-02T08:51:42.137Z,21.69
2023-06-02T08:54:12.125Z,21.58
2023-06-02T08:56:39.038Z,21.39
2023-06-02T08:59:05.943Z,21.19
2023-06-02T09:01:32.737Z,21.46
2023-06-02T09:03:59.677Z,21.77
2023-06-02T09:06:28.375Z,22.14
2023-06-02T09:09:03.438Z,22.21
2023-06-02T09:11:31.881Z,22.00
2023-06-02T09:14:00.619Z,21.91
2023-06-02T09:16:39.331Z,22.03
2023-06-02T09:19:06.381Z,21.85
2023-06-02T09:21:34.657Z,21.79
2023-06-02T09:24:13.442Z,21.97
2023-06-02T09:26:48.921Z,21.17
2023-06-02T09:29:16.359Z,20.44
2023-06-02T09:31:50.050Z,19.86
2023-06-02T09:34:18.721Z,19.58
2023-06-02T09:36:49.027Z,19.86
2023-06-02T09:39:15.970Z,20.38
2023-06-02T09:41:42.996Z,20.88
2023-06-02T09:44:16.672Z,20.82
2023-06-02T09:46:46.316Z,20.87
2023-06-02T09:49:13.426Z,21.08
2023-06-02T09:51:40.609Z,21.21
2023-06-02T09:54:08.794Z,20.82
2023-06-02T09:56:37.911Z,20.15
2023-06-02T09:59:06.638Z,19.70
2023-06-02T10:01:38.097Z,19.59
2023-06-02T10:04:07.247Z,19.69
2023-06-02T10:07:07.786Z,19.74
2023-06-02T10:09:49.542Z,20.04
2023-06-02T10:12:50.952Z,19.99
2023-06-02T10:15:48.996Z,19.88
2023-06-02T10:18:44.542Z,19.42
2023-06-02T10:21:39.037Z,19.67
2023-06-02T10:24:20.020Z,20.04
2023-06-02T10:27:05.325Z,19.80
2023-06-02T10:29:35.228Z,19.62
2023-06-02T10:32:34.854Z,19.23
2023-06-02T10:35:02.165Z,18.83
2023-06-02T10:37:29.043Z,18.79
2023-06-02T10:39:59.172Z,18.79
2023-06-02T10:42:27.875Z,18.52
2023-06-02T10:45:24.333Z,18.36
2023-06-02T10:47:51.447Z,18.40
2023-06-02T10:50:24.559Z,18.37
2023-06-02T10:53:00.590Z,18.38
2023-06-02T10:55:31.836Z,18.34
2023-06-02T10:58:06.409Z,18.54
2023-06-02T11:00:33.708Z,18.57
2023-06-02T11:03:01.395Z,18.60
2023-06-02T11:05:34.822Z,18.79
2023-06-02T11:08:14.332Z,18.75
2023-06-02T11:10:58.122Z,18.75
2023-06-02T11:13:26.601Z,18.62
2023-06-02T11:15:53.477Z,18.39
2023-06-02T11:18:23.045Z,18.32
2023-06-02T11:20:55.175Z,18.65
2023-06-02T11:23:22.480Z,18.66
2023-06-02T11:25:50.169Z,18.98
2023-06-02T11:28:22.812Z,19.09
2023-06-02T11:31:15.619Z,19.29
2023-06-02T11:33:44.312Z,19.06
2023-06-02T11:36:13.764Z,19.08
2023-06-02T11:38:41.264Z,19.08
2023-06-02T11:41:12.465Z,18.77
2023-06-02T11:43:40.184Z,18.79
2023-06-02T11:46:12.036Z,19.24
2023-06-02T11:48:40.058Z,19.61
2023-06-02T11:51:08.142Z,19.67
2023-06-02T11:53:36.196Z,19.73
2023-06-02T11:56:03.236Z,19.57
2023-06-02T11:58:31.329Z,19.86
2023-06-02T12:01:09.676Z,20.03
2023-06-02T12:03:38.140Z,19.85
2023-06-02T12:06:16.145Z,19.52
2023-06-02T12:08:43.218Z,19.31
2023-06-02T12:11:22.162Z,19.26
2023-06-02T12:14:04.026Z,19.42
2023-06-02T12:16:31.239Z,19.43
2023-06-02T12:19:17.511Z,19.28
2023-06-02T12:21:47.476Z,18.90
2023-06-02T12:24:31.098Z,18.88
2023-06-02T12:26:58.080Z,18.94
2023-06-02T12:29:25.701Z,18.56
2023-06-02T12:32:08.516Z,18.65
2023-06-02T12:34:36.160Z,19.09
2023-06-02T12:37:04.257Z,19.64
2023-06-02T12:39:31.860Z,20.01
2023-06-02T12:41:58.771Z,20.19
2023-06-02T12:44:29.013Z,19.97
2023-06-02T12:46:56.292Z,20.08
2023-06-02T12:49:23.126Z,20.43
2023-06-02T12:51:49.854Z,20.57
2023-06-02T12:54:16.584Z,20.51
2023-06-02T12:56:44.756Z,19.76
2023-06-02T12:59:14.049Z,19.17
2023-06-02T13:01:41.602Z,18.84
2023-06-02T13:04:09.001Z,19.04
2023-06-02T13:06:38.431Z,19.12
2023-06-02T13:09:06.457Z,19.12
2023-06-02T13:11:33.382Z,19.00
2023-06-02T13:14:00.107Z,18.63
2023-06-02T13:16:27.189Z,17.92
2023-06-02T13:18:54.442Z,17.78
2023-06-02T13:21:21.406Z,17.71
2023-06-02T13:23:55.129Z,18.02
2023-06-02T13:26:22.374Z,18.26
2023-06-02T13:28:49.387Z,18.26
2023-06-02T13:31:16.443Z,18.31
2023-06-02T13:33:43.543Z,18.37
2023-06-02T13:36:10.297Z,18.40
2023-06-02T13:38:37.168Z,18.10
2023-06-02T13:41:04.247Z,17.65
2023-06-02T13:43:31.109Z,17.36
2023-06-02T13:45:57.908Z,17.29
2023-06-02T13:48:24.773Z,17.46
2023-06-02T13:50:51.474Z,17.55
2023-06-02T13:53:18.348Z,17.76
2023-06-02T13:55:45.079Z,17.90
2023-06-02T13:58:13.800Z,17.82
2023-06-02T14:00:42.566Z,17.57
2023-06-02T14:03:09.591Z,17.46
2023-06-02T14:05:36.546Z,17.51
2023-06-02T14:08:03.595Z,17.50
2023-06-02T14:10:30.342Z,17.75
2023-06-02T14:12:57.207Z,17.78
2023-06-02T14:15:24.060Z,17.86
2023-06-02T14:17:51.640Z,17.77
2023-06-02T14:20:20.138Z,17.50
2023-06-02T14:22:47.014Z,17.06
2023-06-02T14:25:13.764Z,17.07
2023-06-02T14:27:40.938Z,17.18
2023-06-02T14:30:08.407Z,17.02
2023-06-02T14:32:35.214Z,16.90
2023-06-02T14:35:02.035Z,16.97
2023-06-02T14:37:28.774Z,16.60
2023-06-02T14:39:56.794Z,16.16
2023-06-02T14:42:23.772Z,15.89
2023-06-02T14:44:50.507Z,15.61
2023-06-02T14:47:17.465Z,15.54
2023-06-02T14:49:44.230Z,15.48
2023-06-02T14:52:10.959Z,15.56
2023-06-02T14:54:39.826Z,15.65
2023-06-02T14:57:06.934Z,15.70
2023-06-02T14:59:33.735Z,15.86
2023-06-02T15:02:00.409Z,15.91
2023-06-02T15:04:27.390Z,15.82
2023-06-02T15:06:54.113Z,15.81
2023-06-02T15:09:21.161Z,15.99
2023-06-02T15:11:47.981Z,16.10
2023-06-02T15:14:14.757Z,15.89
2023-06-02T15:16:41.524Z,15.85
2023-06-02T15:19:09.752Z,15.70
2023-06-02T15:21:37.355Z,15.78
2023-06-02T15:24:04.668Z,15.88
2023-06-02T15:26:31.405Z,15.50
2023-06-02T15:28:58.235Z,15.42
2023-06-02T15:31:25.053Z,15.42
2023-06-02T15:33:51.910Z,15.33
2023-06-02T15:36:20.601Z,15.37
2023-06-02T15:38:47.379Z,15.18
2023-06-02T15:41:14.058Z,15.09
2023-06-02T15:43:42.390Z,15.17
2023-06-02T15:46:09.219Z,15.16
2023-06-02T15:48:38.288Z,15.17
2023-06-02T15:51:06.107Z,15.19
2023-06-02T15:53:32.867Z,15.20
2023-06-02T15:55:59.668Z,15.42
2023-06-02T15:58:27.346Z,15.46
2023-06-02T16:00:54.154Z,15.45
2023-06-02T16:03:21.108Z,15.45
2023-06-02T16:05:47.882Z,15.32
2023-06-02T16:08:14.722Z,15.24
2023-06-02T16:10:41.737Z,15.12
2023-06-02T16:13:08.404Z,15.21
2023-06-02T16:15:35.397Z,15.04
2023-06-02T16:18:02.207Z,14.86
2023-06-02T16:20:29.156Z,14.70
2023-06-02T16:22:55.848Z,14.52
2023-06-02T16:25:24.963Z,14.54
2023-06-02T16:27:52.494Z,14.63
2023-06-02T16:30:19.287Z,14.63
2023-06-02T16:32:46.371Z,14.57
2023-06-02T16:35:13.283Z,14.78
2023-06-02T16:37:40.010Z,14.59
2023-06-02T16:40:07.547Z,14.25
2023-06-02T16:42:35.751Z,14.03
2023-06-02T16:45:02.648Z,13.90
2023-06-02T16:47:29.514Z,13.81
2023-06-02T16:49:56.309Z,13.83
2023-06-02T16:52:23.117Z,13.96
2023-06-02T16:54:49.798Z,13.77
2023-06-02T16:57:16.621Z,13.51
2023-06-02T16:59:43.407Z,13.16
2023-06-02T17:02:10.543Z,13.11
2023-06-02T17:04:37.289Z,12.78
2023-06-02T17:07:06.136Z,12.65
2023-06-02T17:09:32.942Z,12.43
2023-06-02T17:11:59.651Z,12.54
2023-06-02T17:14:26.416Z,12.65
2023-06-02T17:16:53.126Z,12.67
2023-06-02T17:19:20.928Z,12.65
2023-06-02T17:21:48.999Z,12.44
2023-06-02T17:24:16.276Z,12.41
2023-06-02T17:26:44.021Z,12.40
2023-06-02T17:29:11.138Z,12.58
2023-06-02T17:31:37.898Z,12.65
2023-06-02T17:34:04.640Z,12.53
2023-06-02T17:36:31.475Z,12.26
2023-06-02T17:38:58.606Z,12.20
2023-06-02T17:41:25.390Z,12.03
2023-06-02T17:43:52.822Z,12.15
2023-06-02T17:46:19.940Z,12.12
2023-06-02T17:48:46.936Z,12.07
2023-06-02T17:51:13.806Z,12.22
2023-06-02T17:53:43.435Z,12.14
2023-06-02T17:56:11.284Z,12.05
2023-06-02T17:58:38.176Z,12.04
2023-06-02T18:01:05.598Z,12.10
2023-06-02T18:03:33.873Z,11.85
2023-06-02T18:06:00.753Z,11.61
2023-06-02T18:08:27.600Z,11.59
2023-06-02T18:10:54.390Z,11.51
2023-06-02T18:13:21.670Z,11.44
2023-06-02T18:15:48.441Z,11.62
2023-06-02T18:18:15.348Z,11.72
2023-06-02T18:20:42.366Z,11.70
2023-06-02T18:23:09.776Z,11.61
2023-06-02T18:25:36.556Z,11.75
2023-06-02T18:28:03.252Z,11.76
2023-06-02T18:30:31.538Z,11.65
2023-06-02T18:32:58.411Z,11.82
2023-06-02T18:35:25.502Z,11.78
2023-06-02T18:37:52.317Z,11.74
2023-06-02T18:40:19.193Z,11.65
2023-06-02T18:42:46.049Z,11.61
2023-06-02T18:45:12.856Z,11.49
2023-06-02T18:47:39.708Z,11.52
2023-06-02T18:50:07.769Z,11.48
2023-06-02T18:52:35.720Z,11.47
2023-06-02T18:55:02.834Z,11.52
2023-06-02T18:57:29.558Z,11.44
2023-06-02T18:59:56.354Z,11.44
2023-06-02T19:02:23.247Z,11.29
2023-06-02T19:04:52.785Z,11.36
2023-06-02T19:07:20.629Z,11.32
2023-06-02T19:09:47.318Z,11.33
2023-06-02T19:12:14.287Z,11.37
2023-06-02T19:14:41.286Z,11.44
2023-06-02T19:17:09.675Z,11.59
2023-06-02T19:19:36.528Z,11.70
2023-06-02T19:22:03.333Z,11.70
2023-06-02T19:24:30.085Z,11.74
2023-06-02T19:26:56.874Z,11.51
2023-06-02T19:29:24.775Z,11.62
2023-06-02T19:31:51.618Z,11.60
2023-06-02T19:34:20.155Z,11.59
2023-06-02T19:36:46.957Z,11.54
2023-06-02T19:39:13.676Z,11.50
2023-06-02T19:41:40.603Z,11.51
2023-06-02T19:44:09.834Z,11.51
2023-06-02T19:46:39.166Z,11.53
2023-06-02T19:49:08.096Z,11.61
2023-06-02T19:51:34.908Z,11.61
2023-06-02T19:54:02.046Z,11.48
2023-06-02T19:56:35.221Z,11.34
2023-06-02T19:59:02.001Z,11.37
2023-06-02T20:01:28.817Z,11.29
2023-06-02T20:03:55.865Z,11.27
2023-06-02T20:06:22.580Z,11.23
2023-06-02T20:08:49.637Z,11.23
2023-06-02T20:11:16.378Z,11.29
2023-06-02T20:13:43.141Z,11.34
2023-06-02T20:16:09.915Z,11.33
2023-06-02T20:18:38.494Z,11.22
2023-06-02T20:21:06.306Z,11.20
2023-06-02T20:23:33.540Z,11.19
2023-06-02T20:26:00.978Z,11.20
2023-06-02T20:28:27.805Z,11.23
2023-06-02T20:30:54.603Z,11.17
2023-06-02T20:33:21.615Z,11.11
2023-06-02T20:35:48.436Z,11.03
2023-06-02T20:38:15.296Z,11.02
2023-06-02T20:40:42.095Z,10.91
2023-06-02T20:43:08.988Z,10.77
2023-06-02T20:45:35.913Z,10.60
2023-06-02T20:48:05.063Z,10.58
2023-06-02T20:50:31.764Z,10.52
2023-06-02T20:52:58.632Z,10.47
2023-06-02T20:55:25.394Z,10.44
2023-06-02T20:57:52.075Z,10.45
2023-06-02T21:00:19.305Z,10.38
2023-06-02T21:02:46.285Z,10.36
2023-06-02T21:05:13.085Z,10.30
2023-06-02T21:07:39.956Z,10.17
2023-06-02T21:10:07.122Z,10.08
2023-06-02T21:12:33.911Z,9.95
2023-06-02T21:15:02.900Z,9.88
2023-06-02T21:17:29.666Z,9.85
2023-06-02T21:19:56.364Z,9.80
2023-06-02T21:22:23.154Z,9.78
2023-06-02T21:24:50.985Z,9.72
2023-06-02T21:27:17.829Z,9.70
2023-06-02T21:29:44.708Z,9.69
2023-06-02T21:32:11.602Z,9.67
2023-06-02T21:34:38.546Z,9.61
2023-06-02T21:37:05.970Z,9.61
2023-06-02T21:39:32.951Z,9.58
2023-06-02T21:42:00.009Z,9.62
2023-06-02T21:44:27.019Z,9.51
2023-06-02T21:46:53.798Z,9.49
2023-06-02T21:49:20.742Z,9.37
2023-06-02T21:51:47.495Z,9.22
2023-06-02T21:54:14.249Z,9.11
2023-06-02T21:56:41.239Z,9.03
2023-06-02T21:59:08.067Z,8.91
2023-06-02T22:01:34.905Z,8.94
2023-06-02T22:04:01.971Z,8.93
2023-06-02T22:06:30.028Z,9.03
2023-06-02T22:08:57.109Z,9.09
2023-06-02T22:11:27.138Z,9.16
2023-06-02T22:13:53.875Z,9.15
2023-06-02T22:16:21.201Z,9.12
2023-06-02T22:18:48.180Z,9.10
2023-06-02T22:21:16.379Z,9.04
2023-06-02T22:23:44.766Z,9.03
2023-06-02T22:26:11.853Z,8.86
2023-06-02T22:28:38.621Z,8.88
2023-06-02T22:31:05.572Z,8.87
2023-06-02T22:33:32.673Z,8.77
2023-06-02T22:35:59.604Z,8.74
2023-06-02T22:38:26.362Z,8.66
2023-06-02T22:40:53.193Z,8.66
2023-06-02T22:43:19.926Z,8.66
2023-06-02T22:45:46.888Z,8.54
2023-06-02T22:48:13.923Z,8.51
2023-06-02T22:50:40.660Z,8.47
2023-06-02T22:53:07.462Z,8.42
2023-06-02T22:55:34.244Z,8.44
2023-06-02T22:58:00.939Z,8.46
2023-06-02T23:00:27.769Z,8.42
2023-06-02T23:02:54.934Z,8.27
2023-06-02T23:05:21.692Z,7.96
2023-06-02T23:07:48.383Z,7.75
2023-06-02T23:10:16.356Z,7.73
2023-06-02T23:12:44.551Z,7.71
2023-06-02T23:15:11.772Z,7.62
2023-06-02T23:17:38.640Z,7.54
2023-06-02T23:20:09.521Z,7.45
2023-06-02T23:22:36.474Z,7.41
2023-06-02T23:25:03.898Z,7.51
2023-06-02T23:27:31.629Z,7.45
2023-06-02T23:29:58.949Z,7.29
2023-06-02T23:32:26.249Z,7.26
2023-06-02T23:34:55.195Z,7.36
2023-06-02T23:37:25.844Z,7.43
2023-06-02T23:39:53.675Z,7.30
2023-06-02T23:42:20.348Z,7.21
2023-06-02T23:44:47.136Z,7.10
2023-06-02T23:47:18.200Z,7.02
2023-06-02T23:49:48.716Z,6.97
2023-06-02T23:52:16.349Z,6.91
2023-06-02T23:54:43.619Z,6.94
2023-06-02T23:57:10.461Z,7.02
2023-06-02T23:59:37.300Z,7.03
